Time,TemperatureF,DewpointF,PressureIn,WindDirection,WindDirectionDegrees,WindSpeedMPH,WindSpeedGustMPH,Humidity,HourlyPrecipIn,Conditions,Clouds,dailyrainin,SoftwareType,DateUTC
2013-08-17 00:12:00,65.1,62.7,30.04,NE,45,0.0,-999.0,92,-99.99,,,0.00,Acu-Link.com,2013-08-17 04:12:00,
2013-08-17 00:28:00,65.3,62.9,30.03,NE,45,0.0,-999.0,92,-99.99,,,0.00,Acu-Link.com,2013-08-17 04:28:00,
2013-08-17 00:43:00,64.9,62.8,30.04,NE,45,0.0,-999.0,93,-99.99,,,0.00,Acu-Link.com,2013-08-17 04:43:00,
2013-08-17 00:58:00,64.9,62.8,30.03,ENE,67,1.1,-999.0,93,-99.99,,,0.00,Acu-Link.com,2013-08-17 04:58:00,
2013-08-17 01:14:00,64.8,62.7,30.03,East,90,0.0,-999.0,93,-99.99,,,0.00,Acu-Link.com,2013-08-17 05:14:00,
2013-08-17 01:29:00,64.9,62.8,30.04,NE,45,0.0,-999.0,93,-99.99,,,0.00,Acu-Link.com,2013-08-17 05:29:00,
2013-08-17 01:44:00,64.9,62.8,30.03,NNE,22,0.0,-999.0,93,-99.99,,,0.00,Acu-Link.com,2013-08-17 05:44:00,
2013-08-17 02:00:00,65.1,63.0,30.02,NNE,22,2.2,-999.0,93,-99.99,,,0.00,Acu-Link.com,2013-08-17 06:00:00,
2013-08-17 02:15:00,65.1,63.0,30.02,North,0,2.2,-999.0,93,-99.99,,,0.00,Acu-Link.com,2013-08-17 06:15:00,
2013-08-17 02:31:00,65.1,63.0,30.02,NNE,22,2.7,-999.0,93,-99.99,,,0.00,Acu-Link.com,2013-08-17 06:31:00,
2013-08-17 02:46:00,65.1,63.0,30.01,North,0,1.1,-999.0,93,-99.99,,,0.00,Acu-Link.com,2013-08-17 06:46:00,
2013-08-17 03:01:00,65.1,63.0,30.01,ENE,67,2.7,-999.0,93,-99.99,,,0.00,Acu-Link.com,2013-08-17 07:01:00,
2013-08-17 03:16:00,65.1,63.0,30.01,NNE,22,4.2,-999.0,93,-99.99,,,0.00,Acu-Link.com,2013-08-17 07:16:00,
2013-08-17 03:32:00,65.1,63.0,30.01,NNE,22,3.7,-999.0,93,-99.99,,,0.00,Acu-Link.com,2013-08-17 07:32:00,
2013-08-17 03:47:00,64.9,62.8,30.01,NE,45,2.2,-999.0,93,-99.99,,,0.00,Acu-Link.com,2013-08-17 07:47:00,
2013-08-17 04:03:00,64.9,62.8,30.01,NNE,22,0.0,-999.0,93,-99.99,,,0.01,Acu-Link.com,2013-08-17 08:03:00,
2013-08-17 04:18:00,64.8,63.0,30.01,NE,45,4.2,-999.0,94,-99.99,,,0.02,Acu-Link.com,2013-08-17 08:18:00,
2013-08-17 04:34:00,64.4,62.9,30.00,NNE,22,1.7,-999.0,95,-99.99,,,0.03,Acu-Link.com,2013-08-17 08:34:00,
2013-08-17 04:49:00,64.4,62.9,30.00,WNW,292,2.7,-999.0,95,-99.99,,,0.03,Acu-Link.com,2013-08-17 08:49:00,
2013-08-17 05:04:00,64.2,62.7,30.00,NE,45,2.2,-999.0,95,-99.99,,,0.03,Acu-Link.com,2013-08-17 09:04:00,
2013-08-17 05:20:00,64.0,62.5,30.00,NNE,22,3.2,-999.0,95,-99.99,,,0.03,Acu-Link.com,2013-08-17 09:20:00,
2013-08-17 05:35:00,64.2,62.7,30.00,NNE,22,2.7,-999.0,95,-99.99,,,0.03,Acu-Link.com,2013-08-17 09:35:00,
2013-08-17 05:50:00,64.0,62.5,30.01,North,0,2.7,-999.0,95,-99.99,,,0.05,Acu-Link.com,2013-08-17 09:50:00,
2013-08-17 06:05:00,63.7,62.5,30.01,ENE,67,2.7,-999.0,96,-99.99,,,0.08,Acu-Link.com,2013-08-17 10:05:00,
2013-08-17 06:20:00,63.7,62.5,30.02,East,90,1.1,-999.0,96,-99.99,,,0.12,Acu-Link.com,2013-08-17 10:20:00,
2013-08-17 06:36:00,63.7,62.5,30.02,NE,45,3.2,-999.0,96,-99.99,,,0.14,Acu-Link.com,2013-08-17 10:36:00,
2013-08-17 06:51:00,63.5,62.6,30.02,ENE,67,3.2,-999.0,97,-99.99,,,0.18,Acu-Link.com,2013-08-17 10:51:00,
2013-08-17 07:06:00,63.5,62.6,30.02,NE,45,4.2,-999.0,97,-99.99,,,0.21,Acu-Link.com,2013-08-17 11:06:00,
2013-08-17 07:21:00,63.3,62.4,30.03,WNW,292,2.7,-999.0,97,-99.99,,,0.27,Acu-Link.com,2013-08-17 11:21:00,
2013-08-17 07:37:00,63.3,62.4,30.03,East,90,2.2,-999.0,97,-99.99,,,0.34,Acu-Link.com,2013-08-17 11:37:00,
2013-08-17 07:52:00,63.7,62.8,30.03,NNE,22,2.7,-999.0,97,-99.99,,,0.35,Acu-Link.com,2013-08-17 11:52:00,
2013-08-17 08:08:00,63.7,62.8,30.03,NNW,337,0.0,-999.0,97,-99.99,,,0.36,Acu-Link.com,2013-08-17 12:08:00,
2013-08-17 08:23:00,63.9,63.0,30.03,ENE,67,2.7,-999.0,97,-99.99,,,0.43,Acu-Link.com,2013-08-17 12:23:00,
2013-08-17 08:38:00,64.0,63.1,30.03,ENE,67,4.7,-999.0,97,-99.99,,,0.44,Acu-Link.com,2013-08-17 12:38:00,
2013-08-17 08:53:00,63.9,63.0,30.03,North,0,7.3,-999.0,97,-99.99,,,0.46,Acu-Link.com,2013-08-17 12:53:00,
2013-08-17 09:08:00,64.2,63.3,30.04,NE,45,4.7,-999.0,97,-99.99,,,0.46,Acu-Link.com,2013-08-17 13:08:00,
2013-08-17 09:23:00,64.2,63.3,30.04,NE,45,4.2,-999.0,97,-99.99,,,0.48,Acu-Link.com,2013-08-17 13:23:00,
2013-08-17 09:39:00,64.2,63.3,30.05,NE,45,2.7,-999.0,97,-99.99,,,0.48,Acu-Link.com,2013-08-17 13:39:00,
2013-08-17 09:55:00,64.4,63.5,30.04,North,0,3.7,-999.0,97,-99.99,,,0.49,Acu-Link.com,2013-08-17 13:55:00,
2013-08-17 10:10:00,64.6,63.7,30.04,NE,45,3.7,-999.0,97,-99.99,,,0.50,Acu-Link.com,2013-08-17 14:10:00,
2013-08-17 10:25:00,64.8,63.9,30.05,NNW,337,7.8,-999.0,97,-99.99,,,0.54,Acu-Link.com,2013-08-17 14:25:00,
2013-08-17 10:40:00,65.3,64.4,30.04,NNE,22,4.7,-999.0,97,-99.99,,,0.58,Acu-Link.com,2013-08-17 14:40:00,
2013-08-17 10:56:00,66.4,65.5,30.05,NNW,337,3.2,-999.0,97,-99.99,,,0.60,Acu-Link.com,2013-08-17 14:56:00,
2013-08-17 11:11:00,66.7,65.5,30.06,North,0,6.8,-999.0,96,-99.99,,,0.62,Acu-Link.com,2013-08-17 15:11:00,
2013-08-17 11:26:00,66.9,65.7,30.05,NW,315,3.2,-999.0,96,-99.99,,,0.62,Acu-Link.com,2013-08-17 15:26:00,
2013-08-17 11:41:00,67.1,65.9,30.05,North,0,4.7,-999.0,96,-99.99,,,0.62,Acu-Link.com,2013-08-17 15:41:00,
2013-08-17 11:56:00,67.3,65.8,30.05,ESE,112,6.3,-999.0,95,-99.99,,,0.62,Acu-Link.com,2013-08-17 15:56:00,
2013-08-17 12:12:00,67.8,66.3,30.04,ENE,67,4.7,-999.0,95,-99.99,,,0.62,Acu-Link.com,2013-08-17 16:12:00,
2013-08-17 12:27:00,68.0,66.5,30.04,NE,45,5.3,-999.0,95,-99.99,,,0.62,Acu-Link.com,2013-08-17 16:27:00,
2013-08-17 12:42:00,67.8,66.3,30.04,ESE,112,6.3,-999.0,95,-99.99,,,0.62,Acu-Link.com,2013-08-17 16:42:00,
2013-08-17 12:57:00,68.2,66.7,30.04,NNE,22,5.8,-999.0,95,-99.99,,,0.62,Acu-Link.com,2013-08-17 16:57:00,
2013-08-17 13:12:00,68.7,67.2,30.04,North,0,0.0,-999.0,95,-99.99,,,0.62,Acu-Link.com,2013-08-17 17:12:00,
2013-08-17 13:28:00,68.7,67.2,30.03,ENE,67,1.7,-999.0,95,-99.99,,,0.62,Acu-Link.com,2013-08-17 17:28:00,
2013-08-17 13:43:00,68.7,67.2,30.03,NE,45,3.7,-999.0,95,-99.99,,,0.62,Acu-Link.com,2013-08-17 17:43:00,
2013-08-17 13:59:00,69.4,67.6,30.02,NNW,337,1.7,-999.0,94,-99.99,,,0.62,Acu-Link.com,2013-08-17 17:59:00,
2013-08-17 14:14:00,69.8,68.0,30.02,SE,135,2.7,-999.0,94,-99.99,,,0.62,Acu-Link.com,2013-08-17 18:14:00,
2013-08-17 14:29:00,70.3,68.5,30.02,NE,45,3.7,-999.0,94,-99.99,,,0.62,Acu-Link.com,2013-08-17 18:29:00,
2013-08-17 14:44:00,70.2,68.4,30.02,NNE,22,4.2,-999.0,94,-99.99,,,0.63,Acu-Link.com,2013-08-17 18:44:00,
2013-08-17 15:00:00,70.5,68.7,30.01,NNE,22,5.8,-999.0,94,-99.99,,,0.63,Acu-Link.com,2013-08-17 19:00:00,
2013-08-17 15:15:00,70.7,68.9,30.01,NE,45,4.7,-999.0,94,-99.99,,,0.63,Acu-Link.com,2013-08-17 19:15:00,
2013-08-17 15:30:00,70.7,68.9,30.00,NE,45,5.3,-999.0,94,-99.99,,,0.63,Acu-Link.com,2013-08-17 19:30:00,
2013-08-17 15:45:00,71.1,69.3,30.00,North,0,2.7,-999.0,94,-99.99,,,0.63,Acu-Link.com,2013-08-17 19:45:00,
2013-08-17 16:01:00,70.9,69.1,30.00,NE,45,3.2,-999.0,94,-99.99,,,0.63,Acu-Link.com,2013-08-17 20:01:00,
2013-08-17 16:16:00,70.9,69.1,30.00,North,0,1.1,-999.0,94,-99.99,,,0.63,Acu-Link.com,2013-08-17 20:16:00,
2013-08-17 16:31:00,71.1,69.6,30.00,NNE,22,3.7,-999.0,95,-99.99,,,0.63,Acu-Link.com,2013-08-17 20:31:00,
2013-08-17 16:47:00,71.2,69.7,30.00,ESE,112,1.7,-999.0,95,-99.99,,,0.63,Acu-Link.com,2013-08-17 20:47:00,
2013-08-17 17:02:00,70.9,69.4,30.00,ENE,67,2.7,-999.0,95,-99.99,,,0.63,Acu-Link.com,2013-08-17 21:02:00,
2013-08-17 17:17:00,71.1,69.6,30.00,NNW,337,3.2,-999.0,95,-99.99,,,0.63,Acu-Link.com,2013-08-17 21:17:00,
2013-08-17 17:33:00,70.7,69.2,30.00,NNE,22,1.7,-999.0,95,-99.99,,,0.63,Acu-Link.com,2013-08-17 21:33:00,
2013-08-17 17:48:00,70.7,69.2,30.00,NE,45,2.2,-999.0,95,-99.99,,,0.63,Acu-Link.com,2013-08-17 21:48:00,
2013-08-17 18:03:00,70.7,69.5,30.00,NNW,337,3.7,-999.0,96,-99.99,,,0.63,Acu-Link.com,2013-08-17 22:03:00,
2013-08-17 18:19:00,70.7,69.5,30.00,NNW,337,3.7,-999.0,96,-99.99,,,0.63,Acu-Link.com,2013-08-17 22:19:00,
2013-08-17 18:34:00,70.5,69.3,30.00,NE,45,3.7,-999.0,96,-99.99,,,0.63,Acu-Link.com,2013-08-17 22:34:00,
2013-08-17 18:49:00,70.5,69.3,30.00,NNW,337,3.7,-999.0,96,-99.99,,,0.63,Acu-Link.com,2013-08-17 22:49:00,
2013-08-17 19:04:00,70.5,69.3,30.00,NE,45,2.7,-999.0,96,-99.99,,,0.64,Acu-Link.com,2013-08-17 23:04:00,
2013-08-17 19:19:00,70.5,69.6,30.01,NNW,337,0.0,-999.0,97,-99.99,,,0.64,Acu-Link.com,2013-08-17 23:19:00,
2013-08-17 19:35:00,70.5,69.6,30.02,NE,45,1.7,-999.0,97,-99.99,,,0.64,Acu-Link.com,2013-08-17 23:35:00,
2013-08-17 19:50:00,70.5,69.6,30.01,ESE,112,2.2,-999.0,97,-99.99,,,0.64,Acu-Link.com,2013-08-17 23:50:00,
2013-08-17 20:05:00,70.5,69.6,30.01,NNW,337,0.0,-999.0,97,-99.99,,,0.64,Acu-Link.com,2013-08-18 00:05:00,
2013-08-17 20:20:00,70.5,69.6,30.01,NW,315,0.0,-999.0,97,-99.99,,,0.64,Acu-Link.com,2013-08-18 00:20:00,
2013-08-17 20:36:00,70.5,69.6,30.01,ENE,67,0.0,-999.0,97,-99.99,,,0.64,Acu-Link.com,2013-08-18 00:36:00,
2013-08-17 20:51:00,70.5,69.6,30.02,ENE,67,0.0,-999.0,97,-99.99,,,0.64,Acu-Link.com,2013-08-18 00:51:00,
2013-08-17 21:06:00,70.5,69.6,30.02,NW,315,0.0,-999.0,97,-99.99,,,0.64,Acu-Link.com,2013-08-18 01:06:00,
2013-08-17 21:22:00,70.5,69.9,30.03,NNW,337,0.0,-999.0,98,-99.99,,,0.64,Acu-Link.com,2013-08-18 01:22:00,
2013-08-17 21:37:00,70.5,69.9,30.03,NNE,22,0.0,-999.0,98,-99.99,,,0.64,Acu-Link.com,2013-08-18 01:37:00,
2013-08-17 21:53:00,70.5,69.9,30.03,NNE,22,0.0,-999.0,98,-99.99,,,0.64,Acu-Link.com,2013-08-18 01:53:00,
2013-08-17 22:08:00,70.5,69.9,30.03,West,270,0.0,-999.0,98,-99.99,,,0.65,Acu-Link.com,2013-08-18 02:08:00,
2013-08-17 22:23:00,70.5,69.9,30.04,NNE,22,0.0,-999.0,98,-99.99,,,0.66,Acu-Link.com,2013-08-18 02:23:00,
2013-08-17 22:39:00,70.3,69.7,30.03,NNE,22,0.0,-999.0,98,-99.99,,,0.66,Acu-Link.com,2013-08-18 02:39:00,
2013-08-17 22:54:00,70.2,69.6,30.03,West,270,0.0,-999.0,98,-99.99,,,0.66,Acu-Link.com,2013-08-18 02:54:00,
2013-08-17 23:09:00,70.2,69.6,30.04,West,270,0.0,-999.0,98,-99.99,,,0.66,Acu-Link.com,2013-08-18 03:09:00,
2013-08-17 23:25:00,70.2,69.6,30.04,WSW,247,0.0,-999.0,98,-99.99,,,0.66,Acu-Link.com,2013-08-18 03:25:00,
2013-08-17 23:40:00,70.0,69.4,30.04,West,270,0.0,-999.0,98,-99.99,,,0.66,Acu-Link.com,2013-08-18 03:40:00,
2013-08-17 23:56:00,69.8,69.2,30.03,North,0,0.0,-999.0,98,-99.99,,,0.66,Acu-Link.com,2013-08-18 03:56:00,